Terminal Aerodrome Forecast
Issued by NWS

Current Version | Previous Version | Text Only | Print | Product List | Glossary On
Versions: 1 2 3 4 5 6 7 8 9 10 11 12 13 14 15
000
FTUS41 KCAR 280900 AAA
TAFPQI
TAF AMD
KPQI 280923Z 2809/2906 16007KT P6SM OVC012
      TEMPO 2809/2812 6SM BR BKN006
     FM281700 14007KT P6SM OVC025
     FM281800 14008KT P6SM -SHRA OVC025
     FM282300 12009KT 5SM -SHRA BR OVC020
     FM290200 13010KT 4SM -SHRA BR SCT008 OVC012
      AMD LTD TO CLD VIS AND WIND=

USA.gov is the U.S. government's official web portal to all federal, state and local government web resources and services.